createdAt,value
2022-09-26T00:01:31.987Z,12.60
2022-09-26T00:04:23.629Z,12.60
2022-09-26T00:07:10.096Z,12.60
2022-09-26T00:09:56.159Z,12.60
2022-09-26T00:12:42.114Z,12.60
2022-09-26T00:15:28.110Z,12.60
2022-09-26T00:18:14.017Z,12.60
2022-09-26T00:21:04.510Z,12.50
2022-09-26T00:23:50.892Z,12.60
2022-09-26T00:26:37.569Z,12.50
2022-09-26T00:29:23.927Z,12.50
2022-09-26T00:32:10.118Z,12.50
2022-09-26T00:34:56.044Z,12.50
2022-09-26T00:37:42.350Z,12.50
2022-09-26T00:40:30.495Z,12.40
2022-09-26T00:43:30.243Z,12.40
2022-09-26T00:46:19.341Z,12.40
2022-09-26T00:49:28.131Z,12.40
2022-09-26T00:52:35.087Z,12.40
2022-09-26T00:55:24.609Z,12.30
2022-09-26T00:58:32.478Z,12.30
2022-09-26T01:01:20.073Z,12.30
2022-09-26T01:04:07.683Z,12.30
2022-09-26T01:06:56.299Z,12.20
2022-09-26T01:09:43.234Z,12.20
2022-09-26T01:12:29.954Z,12.10
2022-09-26T01:15:16.171Z,12.10
2022-09-26T01:18:02.683Z,12.00
2022-09-26T01:21:07.589Z,12.00
2022-09-26T01:23:56.792Z,12.00
2022-09-26T01:26:58.122Z,12.00
2022-09-26T01:30:08.817Z,12.00
2022-09-26T01:33:16.301Z,11.90
2022-09-26T01:36:39.206Z,12.00
2022-09-26T01:39:42.871Z,12.00
2022-09-26T01:42:48.170Z,12.00
2022-09-26T01:45:58.932Z,12.00
2022-09-26T01:48:51.957Z,11.90
2022-09-26T01:51:50.521Z,12.00
2022-09-26T01:54:48.766Z,11.90
2022-09-26T01:57:44.508Z,11.90
2022-09-26T02:00:32.011Z,11.90
2022-09-26T02:03:34.697Z,11.90
2022-09-26T02:06:34.325Z,11.90
2022-09-26T02:09:40.194Z,11.80
2022-09-26T02:12:32.855Z,11.80
2022-09-26T02:15:20.850Z,11.80
2022-09-26T02:18:30.736Z,11.80
2022-09-26T02:21:20.922Z,11.80
2022-09-26T02:24:07.547Z,11.80
2022-09-26T02:26:54.972Z,11.80
2022-09-26T02:29:43.921Z,11.80
2022-09-26T02:32:32.920Z,11.90
2022-09-26T02:35:37.737Z,11.90
2022-09-26T02:38:29.281Z,11.80
2022-09-26T02:41:39.585Z,11.80
2022-09-26T02:44:38.165Z,11.70
2022-09-26T02:47:33.396Z,11.70
2022-09-26T02:50:42.191Z,11.70
2022-09-26T02:53:43.531Z,11.70
2022-09-26T02:56:50.652Z,11.70
2022-09-26T02:59:59.677Z,11.70
2022-09-26T03:03:24.036Z,11.70
2022-09-26T03:06:15.272Z,11.70
2022-09-26T03:09:05.408Z,11.70
2022-09-26T03:11:53.591Z,11.70
2022-09-26T03:14:42.574Z,11.80
2022-09-26T03:17:29.379Z,11.80
2022-09-26T03:20:19.402Z,11.80
2022-09-26T03:23:05.709Z,11.80
2022-09-26T03:26:04.081Z,11.90
2022-09-26T03:28:53.051Z,11.90
2022-09-26T03:31:38.963Z,11.90
2022-09-26T03:34:27.479Z,11.90
2022-09-26T03:37:17.048Z,11.90
2022-09-26T03:40:11.690Z,12.00
2022-09-26T03:43:16.294Z,12.00
2022-09-26T03:46:07.046Z,12.00
2022-09-26T03:48:54.098Z,12.10
2022-09-26T03:51:39.929Z,12.10
2022-09-26T03:54:25.803Z,12.10
2022-09-26T03:57:13.448Z,12.00
2022-09-26T04:00:07.921Z,11.90
2022-09-26T04:03:03.350Z,11.90
2022-09-26T04:05:58.215Z,11.80
2022-09-26T04:08:44.557Z,11.80
2022-09-26T04:11:30.564Z,11.70
2022-09-26T04:14:18.389Z,11.70
2022-09-26T04:17:08.113Z,11.70
2022-09-26T04:19:59.693Z,11.70
2022-09-26T04:22:45.797Z,11.60
2022-09-26T04:25:36.475Z,11.60
2022-09-26T04:28:23.880Z,11.60
2022-09-26T04:31:10.997Z,11.60
2022-09-26T04:34:00.240Z,11.60
2022-09-26T04:36:46.631Z,11.60
2022-09-26T04:39:33.254Z,11.60
2022-09-26T04:42:19.619Z,11.70
2022-09-26T04:45:06.441Z,11.60
2022-09-26T04:47:53.501Z,11.70
2022-09-26T04:51:07.217Z,11.70
2022-09-26T04:53:53.225Z,11.70
2022-09-26T04:56:44.444Z,11.70
2022-09-26T04:59:33.219Z,11.70
2022-09-26T05:02:23.182Z,11.70
2022-09-26T05:05:09.615Z,11.80
2022-09-26T05:07:55.595Z,11.80
2022-09-26T05:10:42.623Z,11.80
2022-09-26T05:13:29.245Z,11.80
2022-09-26T05:16:17.142Z,11.90
2022-09-26T05:19:04.413Z,11.90
2022-09-26T05:21:54.792Z,11.90
2022-09-26T05:24:59.504Z,12.00
2022-09-26T05:27:45.453Z,12.00
2022-09-26T05:30:32.148Z,12.00
2022-09-26T05:33:19.461Z,12.10
2022-09-26T05:36:05.670Z,12.10
2022-09-26T05:38:52.356Z,12.10
2022-09-26T05:41:38.887Z,12.10
2022-09-26T05:44:24.749Z,12.20
2022-09-26T05:47:12.971Z,12.20
2022-09-26T05:49:59.271Z,12.20
2022-09-26T05:52:46.165Z,12.30
2022-09-26T05:55:39.215Z,12.30
2022-09-26T05:58:49.130Z,12.40
2022-09-26T06:01:35.875Z,12.40
2022-09-26T06:04:34.875Z,12.40
2022-09-26T06:07:41.031Z,12.50
2022-09-26T06:10:38.520Z,12.50
2022-09-26T06:13:25.371Z,12.60
2022-09-26T06:16:20.687Z,12.60
2022-09-26T06:19:06.844Z,12.60
2022-09-26T06:21:55.468Z,12.60
2022-09-26T06:24:41.767Z,12.70
2022-09-26T06:27:34.999Z,12.70
2022-09-26T06:30:22.989Z,12.70
2022-09-26T06:33:11.263Z,12.80
2022-09-26T06:36:10.965Z,12.80
2022-09-26T06:38:57.081Z,12.80
2022-09-26T06:41:46.972Z,12.90
2022-09-26T06:45:02.264Z,12.90
2022-09-26T06:48:06.006Z,12.90
2022-09-26T06:51:13.339Z,13.00
2022-09-26T06:54:00.693Z,13.00
2022-09-26T06:56:47.433Z,13.00
2022-09-26T06:59:33.687Z,13.10
2022-09-26T07:02:39.011Z,13.10
2022-09-26T07:05:47.843Z,13.10
2022-09-26T07:09:00.294Z,13.20
2022-09-26T07:15:05.585Z,13.20
2022-09-26T07:17:52.337Z,13.30
2022-09-26T07:20:54.469Z,13.30
2022-09-26T07:24:13.931Z,13.30
2022-09-26T07:27:02.228Z,13.30
2022-09-26T07:29:48.880Z,13.30
2022-09-26T07:32:37.705Z,13.30
2022-09-26T07:35:44.402Z,13.20
2022-09-26T07:38:30.948Z,13.20
2022-09-26T07:41:17.900Z,13.20
2022-09-26T07:47:30.563Z,13.30
2022-09-26T07:50:17.736Z,13.30
2022-09-26T07:53:26.877Z,13.30
2022-09-26T07:56:40.273Z,13.40
2022-09-26T07:59:45.809Z,13.40
2022-09-26T08:03:01.482Z,13.40
2022-09-26T08:05:51.950Z,13.40
2022-09-26T08:08:38.544Z,13.40
2022-09-26T08:12:00.811Z,13.40
2022-09-26T08:15:12.651Z,13.30
2022-09-26T08:18:07.913Z,13.40
2022-09-26T08:20:54.156Z,13.50
2022-09-26T08:23:40.500Z,13.50
2022-09-26T08:26:45.004Z,13.60
2022-09-26T08:29:49.548Z,13.60
2022-09-26T08:32:36.888Z,13.70
2022-09-26T08:35:27.259Z,13.80
2022-09-26T08:38:35.338Z,13.80
2022-09-26T08:42:08.653Z,13.90
2022-09-26T08:46:04.599Z,14.00
2022-09-26T08:49:25.679Z,14.10
2022-09-26T08:52:36.066Z,14.00
2022-09-26T08:55:33.280Z,14.00
2022-09-26T08:58:28.898Z,14.00
2022-09-26T09:01:46.685Z,14.00
2022-09-26T09:05:04.650Z,14.00
2022-09-26T09:08:00.520Z,14.10
2022-09-26T09:11:03.292Z,14.20
2022-09-26T09:13:59.907Z,14.30
2022-09-26T09:17:33.268Z,14.30
2022-09-26T09:20:53.904Z,14.40
2022-09-26T09:24:26.755Z,14.50
2022-09-26T09:30:31.723Z,14.60
2022-09-26T09:33:41.461Z,14.70
2022-09-26T09:36:52.594Z,14.70
2022-09-26T09:39:44.147Z,14.60
2022-09-26T09:42:54.339Z,14.50
2022-09-26T09:45:51.245Z,14.50
2022-09-26T09:48:37.164Z,14.50
2022-09-26T09:51:36.856Z,14.60
2022-09-26T09:54:35.868Z,14.70
2022-09-26T09:57:43.288Z,14.70
2022-09-26T10:00:29.617Z,14.80
2022-09-26T10:03:55.294Z,14.90
2022-09-26T10:06:45.293Z,14.90
2022-09-26T10:09:44.155Z,15.00
2022-09-26T10:12:47.443Z,15.00
2022-09-26T10:16:01.171Z,15.00
2022-09-26T10:19:10.306Z,15.00
2022-09-26T10:21:59.767Z,15.00
2022-09-26T10:24:47.715Z,15.10
2022-09-26T10:27:42.081Z,15.10
2022-09-26T10:30:34.089Z,15.20
2022-09-26T10:33:29.202Z,15.20
2022-09-26T10:36:30.041Z,15.20
2022-09-26T10:39:38.292Z,15.20
2022-09-26T10:42:29.888Z,15.30
2022-09-26T10:45:27.145Z,15.30
2022-09-26T10:48:57.753Z,15.40
2022-09-26T10:52:22.340Z,15.40
2022-09-26T10:55:25.566Z,15.40
2022-09-26T10:58:28.490Z,15.30
2022-09-26T11:01:26.467Z,15.20
2022-09-26T11:04:12.727Z,15.10
2022-09-26T11:07:24.814Z,15.10
2022-09-26T11:10:34.221Z,15.30
2022-09-26T11:13:30.283Z,15.50
2022-09-26T11:16:25.035Z,15.60
2022-09-26T11:19:39.294Z,15.70
2022-09-26T11:22:34.225Z,15.60
2022-09-26T11:25:27.774Z,15.50
2022-09-26T11:28:27.891Z,15.40
2022-09-26T11:31:42.799Z,15.30
2022-09-26T11:34:45.082Z,15.30
2022-09-26T11:37:57.525Z,15.30
2022-09-26T11:41:13.227Z,15.40
2022-09-26T11:44:08.073Z,15.60
2022-09-26T11:47:53.232Z,15.60
2022-09-26T11:51:10.558Z,15.50
2022-09-26T11:54:19.375Z,15.40
2022-09-26T11:57:21.676Z,15.30
2022-09-26T12:00:24.219Z,15.20
2022-09-26T12:03:40.491Z,15.10
2022-09-26T12:06:37.380Z,15.00
2022-09-26T12:09:23.171Z,15.00
2022-09-26T12:12:24.264Z,15.10
2022-09-26T12:15:23.597Z,15.30
2022-09-26T12:18:22.449Z,15.40
2022-09-26T12:21:39.198Z,15.40
2022-09-26T12:24:42.120Z,15.50
2022-09-26T12:27:51.319Z,15.60
2022-09-26T12:30:45.317Z,15.50
2022-09-26T12:33:31.665Z,15.50
2022-09-26T12:36:31.651Z,15.50
2022-09-26T12:39:33.280Z,15.50
2022-09-26T12:42:37.883Z,15.40
2022-09-26T12:45:40.515Z,15.10
2022-09-26T12:48:44.507Z,14.70
2022-09-26T12:51:47.393Z,14.50
2022-09-26T12:54:57.239Z,14.30
2022-09-26T12:58:03.827Z,14.30
2022-09-26T13:01:29.945Z,14.40
2022-09-26T13:04:34.294Z,14.70
2022-09-26T13:07:41.479Z,14.90
2022-09-26T13:10:56.097Z,15.10
2022-09-26T13:14:15.727Z,15.40
2022-09-26T13:17:10.786Z,15.60
2022-09-26T13:20:26.319Z,15.70
2022-09-26T13:23:20.777Z,15.70
2022-09-26T13:26:14.828Z,15.70
2022-09-26T13:29:17.117Z,15.70
2022-09-26T13:32:16.280Z,15.60
2022-09-26T13:35:13.768Z,15.60
2022-09-26T13:38:28.388Z,15.50
2022-09-26T13:41:46.724Z,15.40
2022-09-26T13:44:55.657Z,15.40
2022-09-26T13:47:52.197Z,15.40
2022-09-26T13:50:47.673Z,15.70
2022-09-26T13:53:56.425Z,15.90
2022-09-26T13:56:48.300Z,16.10
2022-09-26T13:59:51.555Z,16.10
2022-09-26T14:02:37.544Z,15.90
2022-09-26T14:05:28.771Z,15.40
2022-09-26T14:08:47.692Z,15.10
2022-09-26T14:11:48.916Z,14.80
2022-09-26T14:14:43.430Z,14.60
2022-09-26T14:17:44.418Z,14.50
2022-09-26T14:20:38.315Z,14.40
2022-09-26T14:23:48.653Z,14.30
2022-09-26T14:26:42.935Z,14.30
2022-09-26T14:29:29.266Z,14.20
2022-09-26T14:32:18.537Z,14.20
2022-09-26T14:35:25.166Z,14.20
2022-09-26T14:38:20.779Z,14.20
2022-09-26T14:41:18.354Z,14.20
2022-09-26T14:44:19.050Z,14.20
2022-09-26T14:47:12.807Z,14.20
2022-09-26T14:50:05.773Z,14.20
2022-09-26T14:52:59.509Z,14.20
2022-09-26T14:56:12.625Z,14.20
2022-09-26T14:59:17.257Z,14.30
2022-09-26T15:02:18.347Z,14.40
2022-09-26T15:05:11.331Z,14.50
2022-09-26T15:08:00.396Z,14.50
2022-09-26T15:10:48.579Z,14.50
2022-09-26T15:13:37.072Z,14.50
2022-09-26T15:16:37.387Z,14.50
2022-09-26T15:19:42.759Z,14.60
2022-09-26T15:22:31.018Z,14.60
2022-09-26T15:25:32.850Z,14.60
2022-09-26T15:28:19.411Z,14.70
2022-09-26T15:31:22.655Z,14.70
2022-09-26T15:34:36.616Z,14.80
2022-09-26T15:37:24.423Z,14.80
2022-09-26T15:40:26.354Z,14.80
2022-09-26T15:43:20.756Z,15.10
2022-09-26T15:46:23.391Z,15.50
2022-09-26T15:49:14.924Z,15.90
2022-09-26T15:52:01.089Z,15.90
2022-09-26T15:54:47.274Z,15.90
2022-09-26T15:57:36.902Z,15.90
2022-09-26T16:00:23.225Z,15.90
2022-09-26T16:03:37.064Z,15.80
2022-09-26T16:06:25.391Z,15.60
2022-09-26T16:09:11.457Z,15.40
2022-09-26T16:12:11.577Z,15.20
2022-09-26T16:15:03.841Z,15.00
2022-09-26T16:17:52.485Z,14.80
2022-09-26T16:20:38.529Z,14.50
2022-09-26T16:23:27.093Z,14.20
2022-09-26T16:26:53.609Z,13.90
2022-09-26T16:29:40.247Z,13.40
2022-09-26T16:32:31.456Z,13.10
2022-09-26T16:35:24.850Z,12.80
2022-09-26T16:38:27.742Z,12.70
2022-09-26T16:42:00.743Z,12.50
2022-09-26T16:44:49.901Z,12.50
2022-09-26T16:47:47.681Z,12.50
2022-09-26T16:50:36.226Z,12.50
2022-09-26T16:53:22.488Z,12.50
2022-09-26T16:56:13.007Z,12.50
2022-09-26T16:59:04.934Z,12.60
2022-09-26T17:01:54.675Z,12.60
2022-09-26T17:04:42.986Z,12.60
2022-09-26T17:07:29.159Z,12.60
2022-09-26T17:10:16.221Z,12.70
2022-09-26T17:13:03.262Z,12.70
2022-09-26T17:15:55.502Z,12.70
2022-09-26T17:18:44.857Z,12.70
2022-09-26T17:21:33.896Z,12.70
2022-09-26T17:24:26.315Z,12.70
2022-09-26T17:27:22.852Z,12.70
2022-09-26T17:30:17.865Z,12.70
2022-09-26T17:33:04.404Z,12.70
2022-09-26T17:35:50.764Z,12.70
2022-09-26T17:38:41.112Z,12.60
2022-09-26T17:41:29.720Z,12.60
2022-09-26T17:44:15.895Z,12.60
2022-09-26T17:47:02.129Z,12.60
2022-09-26T17:49:56.274Z,12.60
2022-09-26T17:52:42.615Z,12.60
2022-09-26T17:55:29.749Z,12.60
2022-09-26T17:58:16.572Z,12.60
2022-09-26T18:01:04.402Z,12.60
2022-09-26T18:03:54.169Z,12.60
2022-09-26T18:06:42.304Z,12.60
2022-09-26T18:09:33.539Z,12.60
2022-09-26T18:12:25.403Z,12.60
2022-09-26T18:15:16.463Z,12.60
2022-09-26T18:18:02.603Z,12.70
2022-09-26T18:20:49.360Z,12.70
2022-09-26T18:23:52.081Z,12.70
2022-09-26T18:26:50.633Z,12.70
2022-09-26T18:29:40.385Z,12.70
2022-09-26T18:32:32.883Z,12.70
2022-09-26T18:35:24.042Z,12.70
2022-09-26T18:38:13.203Z,12.70
2022-09-26T18:40:59.530Z,12.70
2022-09-26T18:43:52.290Z,12.70
2022-09-26T18:46:40.685Z,12.70
2022-09-26T18:49:28.109Z,12.70
2022-09-26T18:52:19.219Z,12.70
2022-09-26T18:55:35.902Z,12.70
2022-09-26T18:58:25.719Z,12.70
2022-09-26T19:01:38.087Z,12.70
2022-09-26T19:04:29.505Z,12.70
2022-09-26T19:07:21.104Z,12.80
2022-09-26T19:10:18.443Z,12.80
2022-09-26T19:13:05.463Z,12.80
2022-09-26T19:15:51.729Z,12.80
2022-09-26T19:18:38.482Z,12.80
2022-09-26T19:21:27.326Z,12.80
2022-09-26T19:24:22.916Z,12.70
2022-09-26T19:27:24.859Z,12.70
2022-09-26T19:30:17.294Z,12.70
2022-09-26T19:33:03.669Z,12.70
2022-09-26T19:35:50.031Z,12.70
2022-09-26T19:38:36.258Z,12.70
2022-09-26T19:41:22.535Z,12.60
2022-09-26T19:44:09.305Z,12.60
2022-09-26T19:46:56.312Z,12.50
2022-09-26T19:49:43.157Z,12.50
2022-09-26T19:52:30.553Z,12.50
2022-09-26T19:55:21.059Z,12.50
2022-09-26T19:58:18.776Z,12.50
2022-09-26T20:01:15.450Z,12.50
2022-09-26T20:04:02.028Z,12.50
2022-09-26T20:06:48.629Z,12.50
2022-09-26T20:09:34.959Z,12.50
2022-09-26T20:12:21.269Z,12.50
2022-09-26T20:15:07.658Z,12.50
2022-09-26T20:17:57.480Z,12.50
2022-09-26T20:20:44.598Z,12.50
2022-09-26T20:23:30.835Z,12.50
2022-09-26T20:26:18.096Z,12.50
2022-09-26T20:29:04.117Z,12.50
2022-09-26T20:31:50.314Z,12.50
2022-09-26T20:34:36.400Z,12.50
2022-09-26T20:37:23.475Z,12.50
2022-09-26T20:40:18.483Z,12.40
2022-09-26T20:43:12.044Z,12.40
2022-09-26T20:45:58.365Z,12.40
2022-09-26T20:48:46.838Z,12.40
2022-09-26T20:51:36.363Z,12.30
2022-09-26T20:54:32.988Z,12.30
2022-09-26T20:57:19.949Z,12.30
2022-09-26T21:00:06.956Z,12.20
2022-09-26T21:02:57.212Z,12.20
2022-09-26T21:05:44.103Z,12.20
2022-09-26T21:08:30.793Z,12.20
2022-09-26T21:11:21.337Z,12.20
2022-09-26T21:14:07.190Z,12.20
2022-09-26T21:16:53.759Z,12.10
2022-09-26T21:19:40.251Z,12.10
2022-09-26T21:22:46.332Z,12.10
2022-09-26T21:25:32.623Z,12.10
2022-09-26T21:28:27.015Z,12.10
2022-09-26T21:31:34.611Z,12.10
2022-09-26T21:34:28.744Z,12.10
2022-09-26T21:37:14.650Z,12.10
2022-09-26T21:40:01.954Z,12.00
2022-09-26T21:42:50.945Z,12.00
2022-09-26T21:45:36.871Z,12.00
2022-09-26T21:48:22.939Z,11.90
2022-09-26T21:51:10.849Z,11.90
2022-09-26T21:54:15.703Z,11.90
2022-09-26T21:57:07.831Z,11.90
2022-09-26T21:59:58.902Z,11.80
2022-09-26T22:02:47.109Z,11.80
2022-09-26T22:05:33.622Z,11.80
2022-09-26T22:08:19.679Z,11.70
2022-09-26T22:11:08.694Z,11.70
2022-09-26T22:13:56.690Z,11.70
2022-09-26T22:16:43.018Z,11.70
2022-09-26T22:19:33.269Z,11.70
2022-09-26T22:22:20.010Z,11.60
2022-09-26T22:25:08.056Z,11.60
2022-09-26T22:27:55.704Z,11.50
2022-09-26T22:30:42.183Z,11.50
2022-09-26T22:33:28.568Z,11.50
2022-09-26T22:36:16.191Z,11.50
2022-09-26T22:39:02.571Z,11.40
2022-09-26T22:41:48.686Z,11.40
2022-09-26T22:44:35.805Z,11.50
2022-09-26T22:47:22.356Z,11.40
2022-09-26T22:50:08.578Z,11.50
2022-09-26T22:52:54.827Z,11.50
2022-09-26T22:55:40.949Z,11.50
2022-09-26T22:58:27.095Z,11.40
2022-09-26T23:01:24.909Z,11.50
2022-09-26T23:04:11.639Z,11.50
2022-09-26T23:06:58.997Z,11.50
2022-09-26T23:09:45.768Z,11.40
2022-09-26T23:12:32.410Z,11.40
2022-09-26T23:15:19.316Z,11.40
2022-09-26T23:18:06.014Z,11.40
2022-09-26T23:20:52.103Z,11.40
2022-09-26T23:23:39.520Z,11.40
2022-09-26T23:26:31.773Z,11.40
2022-09-26T23:29:22.069Z,11.40
2022-09-26T23:32:08.334Z,11.40
2022-09-26T23:34:58.015Z,11.40
2022-09-26T23:37:44.420Z,11.40
2022-09-26T23:40:32.223Z,11.50
2022-09-26T23:43:22.154Z,11.40
2022-09-26T23:46:08.631Z,11.40
2022-09-26T23:48:54.847Z,11.50
2022-09-26T23:51:41.636Z,11.50
2022-09-26T23:54:27.738Z,11.50
2022-09-26T23:57:20.176Z,11.50
